Time;durP1;ratioP1;P1;durP2;ratioP2;P2;SDS_P1;SDS_P2;PMS_P1;PMS_P2;Temp;Humidity;BMP_temperature;BMP_pressure;BME280_temperature;BME280_humidity;BME280_pressure;Samples;Min_cycle;Max_cycle;Signal;HPM_P1;HPM_P2
2022/09/13 00:00:05;;;;;;;13.43;9.75;;;18.00;99.90;;;;;;5009863;28;20029;-74
2022/09/13 00:02:31;;;;;;;10.32;9.25;;;18.00;99.90;;;;;;5008330;28;20041;-75
2022/09/13 00:04:57;;;;;;;12.48;8.88;;;18.00;99.90;;;;;;5010654;28;20037;-74
2022/09/13 00:07:22;;;;;;;13.57;9.50;;;18.00;99.90;;;;;;5010665;28;20036;-74
2022/09/13 00:09:48;;;;;;;10.52;8.85;;;18.10;99.90;;;;;;4988086;28;20080;-75
2022/09/13 00:12:14;;;;;;;12.48;9.20;;;18.00;99.90;;;;;;5006454;28;20050;-75
2022/09/13 00:14:40;;;;;;;11.52;9.30;;;18.10;99.90;;;;;;5009463;28;20561;-74
2022/09/13 00:17:06;;;;;;;10.82;9.27;;;18.10;99.90;;;;;;5008826;28;20045;-74
2022/09/13 00:19:32;;;;;;;9.90;8.38;;;18.00;99.90;;;;;;5006726;28;20526;-74
2022/09/13 00:21:57;;;;;;;13.35;9.98;;;18.00;99.90;;;;;;5006766;28;20026;-74
2022/09/13 00:24:23;;;;;;;10.20;9.05;;;18.00;99.90;;;;;;5012109;28;20064;-74
2022/09/13 00:26:48;;;;;;;12.50;9.18;;;18.10;99.90;;;;;;5008080;28;20026;-74
2022/09/13 00:29:14;;;;;;;12.02;8.65;;;18.00;99.90;;;;;;5006343;28;20034;-74
2022/09/13 00:31:39;;;;;;;12.20;9.35;;;18.10;99.90;;;;;;5005868;28;20038;-74
2022/09/13 00:34:05;;;;;;;11.88;10.32;;;18.00;99.90;;;;;;5007220;28;20030;-74
2022/09/13 00:36:30;;;;;;;12.00;10.23;;;18.00;99.90;;;;;;5013638;28;20305;-74
2022/09/13 00:38:56;;;;;;;16.23;11.20;;;18.00;99.90;;;;;;5008478;28;20057;-74
2022/09/13 00:41:22;;;;;;;11.40;8.98;;;18.10;99.90;;;;;;5005181;28;20041;-74
2022/09/13 00:44:00;;;;;;;12.77;9.73;;;18.10;99.90;;;;;;5005008;28;20044;-74
2022/09/13 00:46:47;;;;;;;12.30;10.13;;;18.10;99.90;;;;;;4990893;28;20096;-74
2022/09/13 00:49:27;;;;;;;11.27;9.43;;;18.10;99.90;;;;;;5008193;28;20038;-74
2022/09/13 00:51:59;;;;;;;13.50;9.68;;;18.10;99.90;;;;;;5006813;28;20018;-74
2022/09/13 00:54:30;;;;;;;13.43;9.70;;;18.00;99.90;;;;;;5006293;28;20560;-75
2022/09/13 00:56:59;;;;;;;14.68;9.60;;;18.00;99.90;;;;;;5010483;28;20080;-74
2022/09/13 00:59:33;;;;;;;17.63;10.23;;;18.00;99.90;;;;;;5008207;28;20057;-74
2022/09/13 01:02:00;;;;;;;10.93;9.80;;;18.00;99.90;;;;;;5006854;28;20408;-74
2022/09/13 01:04:29;;;;;;;12.45;10.38;;;18.00;99.90;;;;;;5007371;28;20037;-74
2022/09/13 01:07:01;;;;;;;12.35;9.48;;;18.00;99.90;;;;;;5005320;28;20030;-74
2022/09/13 01:09:28;;;;;;;12.13;10.00;;;18.10;99.90;;;;;;5006224;28;20108;-74
2022/09/13 01:12:14;;;;;;;12.75;9.00;;;18.00;99.90;;;;;;4981947;28;20032;-75
2022/09/13 01:14:42;;;;;;;11.50;9.73;;;18.10;99.90;;;;;;5005111;28;20363;-74
2022/09/13 01:17:08;;;;;;;9.77;8.70;;;18.10;99.90;;;;;;4991648;28;20018;-74
2022/09/13 01:19:34;;;;;;;12.35;9.80;;;18.00;99.90;;;;;;5008045;28;20069;-74
2022/09/13 01:22:37;;;;;;;13.02;9.15;;;18.00;99.90;;;;;;5004325;28;20102;-74
2022/09/13 01:25:14;;;;;;;13.88;9.70;;;18.00;99.90;;;;;;5008498;28;20057;-74
2022/09/13 01:27:55;;;;;;;11.65;9.73;;;18.00;99.90;;;;;;5008503;28;20029;-74
2022/09/13 01:30:33;;;;;;;11.10;9.18;;;18.00;99.90;;;;;;5006468;28;20045;-74
2022/09/13 01:33:14;;;;;;;10.52;9.43;;;18.00;99.90;;;;;;5003977;28;20044;-74
2022/09/13 01:36:01;;;;;;;13.40;10.02;;;18.00;99.90;;;;;;5005616;28;20390;-74
2022/09/13 01:38:41;;;;;;;12.80;10.35;;;18.00;99.90;;;;;;5005679;28;20104;-75
2022/09/13 01:41:10;;;;;;;13.70;10.50;;;18.00;99.90;;;;;;5000547;28;20030;-74
2022/09/13 01:43:41;;;;;;;14.75;10.30;;;18.00;99.90;;;;;;5010450;28;20029;-74
2022/09/13 01:46:36;;;;;;;11.18;9.38;;;18.00;99.90;;;;;;5006323;28;20042;-74
2022/09/13 01:49:29;;;;;;;12.93;9.45;;;18.00;99.90;;;;;;5010685;28;20026;-74
2022/09/13 01:51:58;;;;;;;;;;;18.00;99.90;;;;;;5006345;28;20033;-74
2022/09/13 01:54:38;;;;;;;11.57;8.20;;;18.00;99.90;;;;;;5004717;28;20453;-74
2022/09/13 01:57:15;;;;;;;12.45;10.02;;;17.90;99.90;;;;;;5011332;28;20398;-74
2022/09/13 01:59:55;;;;;;;12.48;9.35;;;18.00;99.90;;;;;;5006948;28;20109;-75
2022/09/13 02:02:30;;;;;;;12.15;9.10;;;18.00;99.90;;;;;;5000818;28;20062;-74
2022/09/13 02:05:04;;;;;;;12.60;9.05;;;18.00;99.90;;;;;;5003562;28;20029;-75
2022/09/13 02:07:37;;;;;;;10.93;9.63;;;18.00;99.90;;;;;;5005221;28;20148;-73
2022/09/13 02:10:28;;;;;;;10.95;9.15;;;18.00;99.90;;;;;;4987301;28;20037;-74
2022/09/13 02:12:56;;;;;;;12.77;9.98;;;18.00;99.90;;;;;;4987984;28;20026;-73
2022/09/13 02:15:37;;;;;;;10.75;8.57;;;18.00;99.90;;;;;;5010475;28;20341;-74
2022/09/13 02:18:09;;;;;;;12.10;9.52;;;17.90;99.90;;;;;;5010841;28;20088;-73
2022/09/13 02:20:38;;;;;;;12.52;9.40;;;18.00;99.90;;;;;;4992098;28;20025;-74
2022/09/13 02:23:17;;;;;;;10.35;8.90;;;18.00;99.90;;;;;;5009391;28;20048;-74
2022/09/13 02:25:45;;;;;;;10.23;8.45;;;18.00;99.90;;;;;;5011349;28;20033;-73
2022/09/13 02:28:15;;;;;;;10.00;8.60;;;18.00;99.90;;;;;;5009414;28;20068;-74
2022/09/13 02:30:50;;;;;;;11.43;9.18;;;18.00;99.90;;;;;;5012302;28;20117;-73
2022/09/13 02:33:23;;;;;;;10.52;8.68;;;18.00;99.90;;;;;;5008836;28;20449;-73
2022/09/13 02:35:59;;;;;;;10.75;8.57;;;18.00;99.90;;;;;;5006128;28;20033;-74
2022/09/13 02:38:38;;;;;;;10.45;8.25;;;18.00;99.90;;;;;;5009260;28;20064;-74
2022/09/13 02:41:16;;;;;;;10.27;8.23;;;18.00;99.90;;;;;;5009751;28;20038;-73
2022/09/13 02:43:56;;;;;;;10.82;8.35;;;18.00;99.90;;;;;;4990150;28;20086;-73
2022/09/13 02:46:45;;;;;;;10.68;7.78;;;18.00;99.90;;;;;;5011589;28;20439;-74
2022/09/13 02:49:14;;;;;;;10.30;8.50;;;18.00;99.90;;;;;;5009735;28;20105;-74
2022/09/13 02:51:54;;;;;;;14.57;9.45;;;18.00;99.90;;;;;;5007468;28;20030;-74
2022/09/13 02:54:40;;;;;;;12.45;8.82;;;18.00;99.90;;;;;;5006332;28;20022;-74
2022/09/13 02:57:19;;;;;;;9.77;8.63;;;18.00;99.90;;;;;;5008824;28;20030;-74
2022/09/13 02:59:46;;;;;;;10.70;9.23;;;18.00;99.90;;;;;;5016532;28;20056;-74
2022/09/13 03:02:16;;;;;;;11.50;9.90;;;18.00;99.90;;;;;;5007305;28;20050;-74
2022/09/13 03:04:41;;;;;;;10.73;9.27;;;18.00;99.90;;;;;;5010435;28;20061;-74
2022/09/13 03:07:11;;;;;;;11.05;9.63;;;17.90;99.90;;;;;;5011865;28;20022;-74
2022/09/13 03:10:03;;;;;;;11.23;9.57;;;17.90;99.90;;;;;;5010162;28;20048;-74
2022/09/13 03:12:38;;;;;;;10.98;9.02;;;17.90;99.90;;;;;;5001498;28;20109;-73
2022/09/13 03:15:55;;;;;;;14.60;10.45;;;17.90;99.90;;;;;;4987337;28;20397;-74
2022/09/13 03:18:50;;;;;;;11.38;9.38;;;17.90;99.90;;;;;;5008433;28;20551;-74
2022/09/13 03:21:45;;;;;;;18.88;9.45;;;17.90;99.90;;;;;;5010574;28;20045;-74
2022/09/13 03:24:50;;;;;;;12.85;10.15;;;17.90;99.90;;;;;;5008323;28;20038;-73
2022/09/13 03:27:33;;;;;;;12.95;9.85;;;17.90;99.90;;;;;;4993190;28;20053;-74
2022/09/13 03:30:05;;;;;;;13.50;9.95;;;17.80;99.90;;;;;;5008147;28;20087;-74
2022/09/13 03:32:48;;;;;;;13.18;10.13;;;17.90;99.90;;;;;;4993829;28;20057;-74
2022/09/13 03:35:16;;;;;;;12.00;9.63;;;17.80;99.90;;;;;;5008724;28;20479;-74
2022/09/13 03:37:58;;;;;;;15.73;9.45;;;17.80;99.90;;;;;;4988349;28;20061;-74
2022/09/13 03:40:48;;;;;;;12.88;11.07;;;17.80;99.90;;;;;;5008109;28;20041;-73
2022/09/13 03:43:35;;;;;;;13.00;9.73;;;17.90;99.90;;;;;;5008020;28;20039;-74
2022/09/13 03:46:25;;;;;;;13.98;10.55;;;17.90;99.90;;;;;;5008265;28;20034;-74
2022/09/13 03:48:51;;;;;;;11.57;8.63;;;17.80;99.90;;;;;;5010669;28;20022;-74
2022/09/13 03:51:17;;;;;;;12.45;10.02;;;17.80;99.90;;;;;;5007713;28;20491;-74
2022/09/13 03:53:54;;;;;;;14.90;10.05;;;17.80;99.90;;;;;;5007896;28;20044;-74
2022/09/13 03:56:20;;;;;;;11.95;9.38;;;17.80;99.90;;;;;;5007818;28;20018;-74
2022/09/13 03:58:47;;;;;;;13.23;10.20;;;17.70;99.90;;;;;;5002737;28;20367;-74
2022/09/13 04:01:12;;;;;;;16.40;10.13;;;17.70;99.90;;;;;;5007697;28;20033;-74
2022/09/13 04:03:38;;;;;;;15.15;10.38;;;17.60;99.90;;;;;;5009390;28;20068;-74
2022/09/13 04:06:05;;;;;;;12.27;9.77;;;17.60;99.90;;;;;;5007350;28;20021;-74
2022/09/13 04:08:32;;;;;;;14.40;11.00;;;17.50;99.90;;;;;;5007668;28;20053;-73
2022/09/13 04:10:57;;;;;;;15.48;10.80;;;17.50;99.90;;;;;;5006154;28;20054;-74
2022/09/13 04:13:23;;;;;;;13.70;10.73;;;17.50;99.90;;;;;;5009582;28;20060;-73
2022/09/13 04:15:49;;;;;;;16.67;11.25;;;17.50;99.90;;;;;;5008864;28;20367;-73
2022/09/13 04:18:15;;;;;;;14.43;11.63;;;17.40;99.90;;;;;;5009767;28;20105;-74
2022/09/13 04:20:41;;;;;;;13.35;10.75;;;17.40;99.90;;;;;;5010336;28;20153;-73
2022/09/13 04:23:06;;;;;;;13.55;10.50;;;17.40;99.90;;;;;;5007192;28;20400;-74
2022/09/13 04:25:32;;;;;;;14.88;10.20;;;17.40;99.90;;;;;;5007179;28;20107;-74
2022/09/13 04:27:58;;;;;;;15.90;10.82;;;17.40;99.90;;;;;;5004971;28;20446;-74
2022/09/13 04:30:25;;;;;;;14.27;10.70;;;17.40;99.90;;;;;;5006417;28;20017;-74
2022/09/13 04:32:51;;;;;;;11.15;9.88;;;17.40;99.90;;;;;;5008973;28;20033;-74
2022/09/13 04:35:18;;;;;;;15.15;11.00;;;17.30;99.90;;;;;;5009962;28;20040;-74
2022/09/13 04:37:44;;;;;;;13.20;10.30;;;17.30;99.90;;;;;;5005584;28;20023;-74
2022/09/13 04:40:11;;;;;;;15.93;11.07;;;17.30;99.90;;;;;;5011057;28;20034;-74
2022/09/13 04:42:36;;;;;;;12.73;10.85;;;17.30;99.90;;;;;;5007515;28;20381;-74
2022/09/13 04:45:02;;;;;;;14.93;11.50;;;17.30;99.90;;;;;;5004699;28;20038;-73
2022/09/13 04:47:28;;;;;;;21.77;12.68;;;17.40;99.90;;;;;;4990423;28;20021;-74
2022/09/13 04:49:54;;;;;;;14.55;11.65;;;17.40;99.90;;;;;;4992977;28;20033;-74
2022/09/13 04:52:19;;;;;;;15.70;12.75;;;17.40;99.90;;;;;;4990664;28;20091;-74
2022/09/13 04:54:46;;;;;;;15.00;11.93;;;17.40;99.90;;;;;;5007579;28;20026;-74
2022/09/13 04:57:13;;;;;;;13.60;11.02;;;17.40;99.90;;;;;;4994059;28;20041;-74
2022/09/13 04:59:39;;;;;;;16.70;12.40;;;17.50;99.90;;;;;;5000442;28;20029;-74
2022/09/13 05:02:05;;;;;;;15.15;11.90;;;17.50;99.90;;;;;;5008719;28;20069;-74
2022/09/13 05:04:30;;;;;;;18.35;12.57;;;17.50;99.90;;;;;;5009375;28;20152;-74
2022/09/13 05:06:57;;;;;;;23.25;12.00;;;17.50;99.90;;;;;;5011266;28;20052;-74
2022/09/13 05:09:23;;;;;;;17.27;12.27;;;17.50;99.90;;;;;;5010077;28;20032;-74
2022/09/13 05:11:49;;;;;;;13.77;11.13;;;17.50;99.90;;;;;;4991343;28;20018;-74
2022/09/13 05:14:14;;;;;;;18.23;11.95;;;17.50;99.90;;;;;;5006079;28;20482;-74
2022/09/13 05:16:40;;;;;;;18.88;12.60;;;17.50;99.90;;;;;;5006506;28;20030;-74
2022/09/13 05:19:05;;;;;;;17.25;13.18;;;17.50;99.90;;;;;;5007291;28;20103;-77
2022/09/13 05:21:31;;;;;;;14.63;12.52;;;17.50;99.90;;;;;;5011637;28;20041;-75
2022/09/13 05:23:57;;;;;;;16.23;12.65;;;17.50;99.90;;;;;;5005746;28;20034;-74
2022/09/13 05:26:25;;;;;;;21.45;12.30;;;17.50;99.90;;;;;;5006043;28;20018;-74
2022/09/13 05:28:50;;;;;;;16.98;11.98;;;17.50;99.90;;;;;;5008923;28;20038;-75
2022/09/13 05:31:17;;;;;;;17.85;12.80;;;17.40;99.90;;;;;;5008044;28;20041;-74
2022/09/13 05:33:44;;;;;;;18.98;13.77;;;17.50;99.90;;;;;;5004826;28;20032;-77
2022/09/13 05:36:10;;;;;;;18.45;12.70;;;17.50;99.90;;;;;;5005833;28;20026;-74
2022/09/13 05:38:36;;;;;;;18.85;12.63;;;17.40;99.90;;;;;;5009470;28;20037;-75
2022/09/13 05:41:03;;;;;;;16.48;13.38;;;17.50;99.90;;;;;;5008853;28;20487;-75
2022/09/13 05:43:31;;;;;;;16.42;13.32;;;17.40;99.90;;;;;;5003015;28;20075;-74
2022/09/13 05:46:18;;;;;;;20.67;13.52;;;17.40;99.90;;;;;;5007312;28;20026;-76
2022/09/13 05:48:44;;;;;;;18.35;13.68;;;17.40;99.90;;;;;;5005615;28;20049;-75
2022/09/13 05:51:14;;;;;;;16.73;11.95;;;17.40;99.90;;;;;;5008119;28;20053;-75
2022/09/13 05:53:41;;;;;;;16.48;12.85;;;17.40;99.90;;;;;;4989928;28;20034;-76
2022/09/13 05:56:09;;;;;;;16.92;12.95;;;17.40;99.90;;;;;;5007255;28;20029;-75
2022/09/13 05:58:38;;;;;;;15.95;12.73;;;17.40;99.90;;;;;;4999898;28;20022;-75
2022/09/13 06:01:04;;;;;;;19.73;13.15;;;17.40;99.90;;;;;;4994571;28;20026;-75
2022/09/13 06:03:29;;;;;;;17.02;11.90;;;17.40;99.90;;;;;;5014213;28;20081;-75
2022/09/13 06:05:56;;;;;;;17.35;12.73;;;17.50;99.90;;;;;;5020880;28;20116;-75
2022/09/13 06:08:28;;;;;;;17.50;13.65;;;17.50;99.90;;;;;;5013045;28;20029;-75
2022/09/13 06:10:56;;;;;;;17.93;12.23;;;17.60;99.90;;;;;;5016362;28;20030;-76
2022/09/13 06:13:22;;;;;;;15.48;12.95;;;17.60;99.90;;;;;;5009241;28;20017;-75
2022/09/13 06:15:47;;;;;;;15.02;12.85;;;17.70;99.90;;;;;;5010355;28;20141;-75
2022/09/13 06:18:13;;;;;;;18.55;13.73;;;17.70;99.90;;;;;;5009114;28;20113;-75
2022/09/13 06:20:38;;;;;;;18.23;12.85;;;17.90;99.90;;;;;;5009954;28;20050;-76
2022/09/13 06:23:04;;;;;;;19.10;12.63;;;18.00;99.90;;;;;;5009591;28;20113;-75
2022/09/13 06:25:29;;;;;;;18.85;13.30;;;18.10;99.90;;;;;;5010550;28;20040;-75
2022/09/13 06:27:55;;;;;;;19.92;12.70;;;18.10;99.90;;;;;;5008308;28;20079;-75
2022/09/13 06:30:21;;;;;;;15.85;12.63;;;18.30;99.90;;;;;;5016701;28;20112;-75
2022/09/13 06:32:46;;;;;;;20.25;14.38;;;18.40;99.90;;;;;;5009096;28;20054;-75
2022/09/13 06:35:12;;;;;;;19.50;13.70;;;18.40;99.90;;;;;;5008259;28;20033;-75
2022/09/13 06:37:37;;;;;;;16.83;13.35;;;18.50;99.90;;;;;;5010450;28;20077;-75
2022/09/13 06:40:04;;;;;;;18.55;12.77;;;18.60;99.90;;;;;;5008693;28;20029;-75
2022/09/13 06:42:32;;;;;;;19.25;13.77;;;18.70;99.90;;;;;;5010772;28;20037;-75
2022/09/13 06:44:57;;;;;;;20.58;14.65;;;18.70;99.90;;;;;;5018197;28;20038;-75
2022/09/13 06:47:23;;;;;;;21.45;13.50;;;18.80;99.90;;;;;;5018748;28;20485;-75
2022/09/13 06:49:48;;;;;;;19.92;14.43;;;18.80;99.90;;;;;;5004081;28;20022;-75
2022/09/13 06:52:14;;;;;;;20.23;15.07;;;18.80;99.90;;;;;;5020531;28;20022;-75
2022/09/13 06:54:39;;;;;;;22.60;15.40;;;18.90;99.90;;;;;;5017933;28;20026;-75
2022/09/13 06:57:05;;;;;;;19.83;14.98;;;18.90;99.90;;;;;;5010995;28;20034;-75
2022/09/13 06:59:31;;;;;;;20.23;15.02;;;18.90;99.90;;;;;;4986782;28;20022;-75
2022/09/13 07:01:56;;;;;;;20.17;16.15;;;18.90;99.90;;;;;;5010096;28;20045;-75
2022/09/13 07:04:22;;;;;;;20.30;16.17;;;19.00;99.90;;;;;;5011391;28;20042;-75
2022/09/13 07:06:48;;;;;;;22.00;16.02;;;19.00;99.90;;;;;;4997950;28;20068;-74
2022/09/13 07:09:17;;;;;;;19.42;15.43;;;19.10;99.90;;;;;;5006164;28;20455;-75
2022/09/13 07:11:43;;;;;;;21.60;16.23;;;19.30;99.90;;;;;;5004703;28;20446;-75
2022/09/13 07:14:14;;;;;;;20.15;15.48;;;19.40;99.90;;;;;;5015351;28;20064;-75
2022/09/13 07:16:40;;;;;;;23.75;17.08;;;19.50;99.90;;;;;;5012768;28;20032;-76
2022/09/13 07:19:11;;;;;;;21.42;17.10;;;19.60;99.90;;;;;;5015630;28;20101;-75
2022/09/13 07:21:36;;;;;;;23.15;17.17;;;19.60;99.90;;;;;;5011258;28;20112;-75
2022/09/13 07:24:02;;;;;;;25.08;20.17;;;19.70;99.90;;;;;;5018757;28;20561;-75
2022/09/13 07:26:28;;;;;;;25.15;19.80;;;19.80;99.90;;;;;;5018616;28;20501;-75
2022/09/13 07:28:56;;;;;;;25.90;20.38;;;19.90;99.90;;;;;;5015724;28;20034;-75
2022/09/13 07:31:27;;;;;;;27.27;20.83;;;19.90;99.90;;;;;;5023742;28;20108;-75
2022/09/13 07:33:55;;;;;;;27.30;20.65;;;19.90;99.90;;;;;;5026624;28;20041;-75
2022/09/13 07:36:20;;;;;;;29.60;21.38;;;20.00;99.90;;;;;;5014849;28;20105;-75
2022/09/13 07:38:47;;;;;;;30.85;21.92;;;20.10;99.90;;;;;;5014856;28;20184;-75
2022/09/13 07:41:18;;;;;;;34.88;21.70;;;20.10;99.90;;;;;;5017657;28;20026;-75
2022/09/13 07:43:44;;;;;;;30.45;21.73;;;20.30;99.90;;;;;;5013429;28;20069;-75
2022/09/13 07:46:16;;;;;;;33.08;22.33;;;20.40;99.90;;;;;;5015067;28;20061;-75
2022/09/13 07:48:42;;;;;;;;;;;20.50;99.90;;;;;;4997002;28;20039;-75
2022/09/13 07:51:16;;;;;;;34.58;22.38;;;20.60;99.90;;;;;;5008820;28;20347;-75
2022/09/13 07:53:45;;;;;;;31.33;23.20;;;20.60;99.90;;;;;;5011809;28;20093;-75
2022/09/13 07:56:19;;;;;;;34.03;24.08;;;20.70;99.90;;;;;;5015152;28;20022;-73
2022/09/13 07:58:46;;;;;;;34.25;24.90;;;20.80;99.90;;;;;;5014370;28;20033;-75
2022/09/13 08:01:22;;;;;;;33.00;23.98;;;20.80;99.90;;;;;;5015775;28;20038;-75
2022/09/13 08:03:53;;;;;;;31.45;23.00;;;20.90;99.90;;;;;;5014269;28;20046;-75
2022/09/13 08:06:19;;;;;;;28.30;22.13;;;20.90;99.90;;;;;;5006414;28;20031;-75
2022/09/13 08:08:44;;;;;;;27.40;19.80;;;21.00;99.90;;;;;;4998224;28;20084;-74
2022/09/13 08:11:15;;;;;;;30.75;21.17;;;21.00;99.90;;;;;;5006639;28;20022;-75
2022/09/13 08:13:40;;;;;;;27.33;19.35;;;21.10;99.90;;;;;;5016961;28;20033;-74
2022/09/13 08:16:06;;;;;;;29.05;19.63;;;21.10;99.90;;;;;;5002501;28;20412;-74
2022/09/13 08:18:33;;;;;;;26.48;18.85;;;21.20;99.90;;;;;;5014902;28;20038;-74
2022/09/13 08:20:59;;;;;;;28.67;19.05;;;21.40;99.90;;;;;;5013809;28;20030;-74
2022/09/13 08:23:25;;;;;;;23.55;18.33;;;21.50;99.90;;;;;;5015002;28;20037;-74
2022/09/13 08:25:51;;;;;;;26.52;19.83;;;21.60;99.90;;;;;;5013905;28;20033;-74
2022/09/13 08:28:20;;;;;;;26.40;18.90;;;21.70;99.90;;;;;;5015284;28;20091;-74
2022/09/13 08:30:46;;;;;;;24.30;17.33;;;21.80;99.90;;;;;;5016864;28;20026;-74
2022/09/13 08:33:12;;;;;;;20.40;16.65;;;21.80;99.90;;;;;;5026433;28;20079;-75
2022/09/13 08:35:37;;;;;;;20.52;15.65;;;22.00;99.90;;;;;;5021425;28;20493;-74
2022/09/13 08:38:04;;;;;;;20.40;15.52;;;22.00;99.90;;;;;;5013914;28;20057;-74
2022/09/13 08:40:43;;;;;;;18.52;13.27;;;22.10;99.90;;;;;;5013941;28;20488;-74
2022/09/13 08:43:24;;;;;;;19.35;14.07;;;22.10;99.90;;;;;;4994826;28;20026;-74
2022/09/13 08:46:09;;;;;;;19.63;13.63;;;22.20;99.90;;;;;;5013986;28;20108;-74
2022/09/13 08:48:39;;;;;;;19.25;13.27;;;22.30;99.90;;;;;;5013542;28;20468;-75
2022/09/13 08:51:12;;;;;;;17.58;12.73;;;22.40;99.90;;;;;;5002318;28;20087;-74
2022/09/13 08:53:46;;;;;;;17.45;13.32;;;22.50;99.90;;;;;;5013306;28;20079;-74
2022/09/13 08:56:22;;;;;;;16.88;12.05;;;22.70;99.90;;;;;;5010112;28;20053;-74
2022/09/13 08:59:04;;;;;;;16.05;11.95;;;22.80;99.90;;;;;;5013189;28;20030;-74
2022/09/13 09:01:55;;;;;;;15.63;11.93;;;23.10;99.90;;;;;;5015552;28;20393;-74
2022/09/13 09:04:27;;;;;;;15.65;10.35;;;23.10;99.90;;;;;;4991910;28;20030;-74
2022/09/13 09:07:09;;;;;;;15.13;10.80;;;23.20;99.90;;;;;;5013250;28;20018;-74
2022/09/13 09:09:41;;;;;;;17.20;11.90;;;23.10;99.90;;;;;;5015700;28;20033;-74
2022/09/13 09:12:27;;;;;;;15.35;10.60;;;23.00;99.90;;;;;;5011787;28;20022;-74
2022/09/13 09:15:14;;;;;;;12.52;9.93;;;23.10;99.90;;;;;;5010682;28;20528;-74
2022/09/13 09:17:44;;;;;;;12.15;8.52;;;23.10;99.90;;;;;;5003683;28;20034;-74
2022/09/13 09:20:32;;;;;;;14.00;8.23;;;23.20;99.90;;;;;;5012984;28;20018;-74
2022/09/13 09:23:02;;;;;;;13.32;8.48;;;23.30;99.90;;;;;;5004207;28;20064;-76
2022/09/13 09:25:27;;;;;;;10.48;8.77;;;23.40;99.90;;;;;;5012354;28;20117;-74
2022/09/13 09:27:55;;;;;;;12.38;8.18;;;23.60;99.90;;;;;;5013452;28;20381;-75
2022/09/13 09:30:20;;;;;;;10.63;8.23;;;23.70;99.90;;;;;;5013058;28;20030;-75
2022/09/13 09:33:06;;;;;;;10.55;8.05;;;23.80;99.90;;;;;;5010965;28;20642;-74
2022/09/13 09:35:55;;;;;;;12.23;9.02;;;23.80;99.90;;;;;;5013093;28;20548;-74
2022/09/13 09:38:40;;;;;;;11.07;8.55;;;23.80;99.90;;;;;;5005641;28;20026;-74
2022/09/13 09:41:17;;;;;;;12.23;8.30;;;23.80;99.90;;;;;;5012191;28;20397;-74
2022/09/13 09:43:54;;;;;;;13.68;10.05;;;23.80;99.90;;;;;;5011162;28;20494;-74
2022/09/13 09:46:24;;;;;;;15.40;8.77;;;23.80;99.90;;;;;;5012348;28;20036;-78
2022/09/13 09:50:07;;;;;;;9.73;7.28;;;23.80;99.90;;;;;;5010864;28;20022;-75
2022/09/13 09:52:00;;;;;;;10.07;7.75;;;23.70;99.90;;;;;;5011190;28;20165;-74
2022/09/13 09:54:29;;;;;;;10.57;7.35;;;23.60;99.90;;;;;;5026102;28;20026;-74
2022/09/13 09:56:55;;;;;;;9.23;5.97;;;23.70;99.90;;;;;;5012800;28;20033;-74
2022/09/13 09:59:32;;;;;;;11.05;6.25;;;23.50;99.90;;;;;;5026505;28;20071;-74
2022/09/13 10:02:13;;;;;;;9.30;5.65;;;23.50;99.90;;;;;;5003164;28;20115;-74
2022/09/13 10:04:39;;;;;;;8.20;5.53;;;23.50;99.90;;;;;;5010368;28;20030;-74
2022/09/13 10:07:33;;;;;;;6.05;4.32;;;23.50;99.90;;;;;;5012575;28;20022;-74
2022/09/13 10:10:05;;;;;;;6.53;3.83;;;23.70;99.90;;;;;;5012269;28;20037;-74
2022/09/13 10:12:35;;;;;;;;;;;23.90;99.90;;;;;;5012163;28;20014;-74
2022/09/13 10:15:16;;;;;;;5.63;3.22;;;24.00;99.90;;;;;;5011585;28;19922;-74
2022/09/13 10:18:02;;;;;;;5.57;3.13;;;24.10;99.90;;;;;;5012475;28;20064;-74
2022/09/13 10:20:28;;;;;;;4.25;3.38;;;24.20;99.90;;;;;;5019214;28;20042;-74
2022/09/13 10:23:10;;;;;;;6.88;4.72;;;24.30;99.90;;;;;;5012940;28;20029;-74
2022/09/13 10:25:37;;;;;;;6.35;4.07;;;24.40;99.90;;;;;;5011254;28;20425;-75
2022/09/13 10:28:04;;;;;;;5.60;4.05;;;24.50;99.90;;;;;;5013076;28;20037;-75
2022/09/13 10:30:46;;;;;;;7.00;3.90;;;24.70;99.90;;;;;;4994444;28;20506;-74
2022/09/13 10:33:25;;;;;;;7.30;4.35;;;24.90;99.90;;;;;;5007148;28;20044;-77
2022/09/13 10:35:54;;;;;;;5.90;3.80;;;24.90;99.90;;;;;;5022462;28;20540;-74
2022/09/13 10:38:32;;;;;;;4.55;2.92;;;25.00;99.90;;;;;;5011621;28;20494;-75
2022/09/13 10:41:01;;;;;;;5.53;3.40;;;25.00;99.90;;;;;;5016122;28;20022;-75
2022/09/13 10:43:28;;;;;;;5.55;3.92;;;25.10;99.90;;;;;;5016387;28;20029;-74
2022/09/13 10:45:55;;;;;;;4.78;3.53;;;25.40;99.90;;;;;;5011852;28;20026;-77
2022/09/13 10:48:21;;;;;;;5.43;4.03;;;25.50;99.90;;;;;;5017112;28;20022;-77
2022/09/13 10:51:01;;;;;;;5.35;4.03;;;25.50;99.90;;;;;;5020433;28;20034;-74
2022/09/13 10:53:39;;;;;;;5.20;3.95;;;25.50;99.90;;;;;;5011605;28;20061;-75
2022/09/13 10:56:18;;;;;;;6.55;3.92;;;25.50;99.90;;;;;;5023975;28;20421;-75
2022/09/13 10:58:43;;;;;;;6.47;3.75;;;25.50;99.90;;;;;;5027008;28;20037;-75
2022/09/13 11:01:30;;;;;;;4.88;3.50;;;25.30;99.90;;;;;;5027119;28;20068;-75
2022/09/13 11:04:39;;;;;;;6.05;3.42;;;25.20;99.90;;;;;;4996706;28;20077;-75
2022/09/13 11:07:26;;;;;;;7.05;3.17;;;25.10;99.90;;;;;;4996970;28;20033;-75
2022/09/13 11:10:14;;;;;;;5.63;3.20;;;25.20;99.90;;;;;;4994801;28;20492;-75
2022/09/13 11:12:49;;;;;;;7.07;3.55;;;25.20;99.90;;;;;;4978688;28;20054;-75
2022/09/13 11:15:25;;;;;;;6.40;4.13;;;25.10;99.90;;;;;;4994056;28;20026;-75
2022/09/13 11:18:29;;;;;;;5.38;3.63;;;25.10;99.90;;;;;;4982674;28;20397;-75
2022/09/13 11:21:17;;;;;;;5.60;2.90;;;25.10;99.90;;;;;;4997912;28;20037;-75
2022/09/13 11:24:03;;;;;;;4.65;2.33;;;25.10;99.90;;;;;;4996929;28;20039;-74
2022/09/13 11:27:03;;;;;;;5.50;2.17;;;25.10;99.90;;;;;;4995405;28;20026;-77
2022/09/13 11:30:19;;;;;;;3.58;1.45;;;25.10;99.90;;;;;;4993219;28;20026;-75
2022/09/13 11:33:13;;;;;;;1.90;1.00;;;24.90;99.90;;;;;;4902513;29;20096;-75
2022/09/13 11:36:04;;;;;;;3.85;1.50;;;24.80;99.90;;;;;;4994305;28;20049;-75
2022/09/13 11:39:04;;;;;;;2.47;1.27;;;24.90;99.90;;;;;;4993025;28;20109;-74
2022/09/13 11:41:47;;;;;;;6.57;1.75;;;25.00;99.90;;;;;;4996295;28;20034;-75
2022/09/13 11:44:25;;;;;;;4.22;1.55;;;25.10;99.90;;;;;;4993761;28;20491;-75
2022/09/13 11:47:15;;;;;;;3.40;1.20;;;25.30;99.70;;;;;;4993966;28;20053;-75
2022/09/13 11:50:31;;;;;;;3.63;1.25;;;25.20;99.20;;;;;;5009389;28;20081;-75
2022/09/13 11:53:27;;;;;;;3.60;1.02;;;25.00;99.20;;;;;;4947335;28;20042;-75
2022/09/13 11:56:02;;;;;;;3.38;1.55;;;24.80;99.70;;;;;;4993920;28;20030;-75
2022/09/13 11:58:36;;;;;;;3.03;1.27;;;24.90;99.70;;;;;;4995520;28;20534;-75
2022/09/13 12:01:09;;;;;;;2.17;0.90;;;25.00;99.50;;;;;;4997002;28;20053;-75
2022/09/13 12:04:06;;;;;;;6.07;1.08;;;25.00;99.40;;;;;;4996707;28;20057;-75
2022/09/13 12:06:45;;;;;;;2.50;1.10;;;25.00;99.60;;;;;;4986212;28;20022;-75
2022/09/13 12:09:25;;;;;;;3.10;1.05;;;25.00;99.30;;;;;;4980534;28;20121;-76
2022/09/13 12:11:58;;;;;;;3.67;1.02;;;25.00;99.50;;;;;;4982816;28;20379;-75
2022/09/13 12:14:29;;;;;;;2.53;0.90;;;25.00;99.20;;;;;;4982510;28;20468;-75
2022/09/13 12:17:05;;;;;;;2.15;0.70;;;25.10;99.20;;;;;;4995633;28;20037;-75
2022/09/13 12:19:46;;;;;;;2.75;0.60;;;25.40;99.00;;;;;;4994451;28;20053;-75
2022/09/13 12:22:13;;;;;;;3.30;0.52;;;25.60;98.60;;;;;;4993331;28;20026;-76
2022/09/13 12:24:51;;;;;;;3.05;0.90;;;25.80;98.40;;;;;;4991614;28;20042;-75
2022/09/13 12:27:40;;;;;;;3.13;0.73;;;26.10;97.50;;;;;;4988006;28;20414;-75
2022/09/13 12:30:17;;;;;;;2.72;0.60;;;26.20;97.20;;;;;;4979146;28;20030;-75
2022/09/13 12:32:46;;;;;;;1.50;0.70;;;26.40;97.00;;;;;;4993736;28;20030;-75
2022/09/13 12:35:27;;;;;;;7.55;1.15;;;26.50;96.60;;;;;;4980804;28;20445;-75
2022/09/13 12:38:07;;;;;;;1.67;0.57;;;26.50;96.40;;;;;;4999020;28;20026;-75
2022/09/13 12:40:45;;;;;;;2.45;0.63;;;26.30;96.40;;;;;;4994309;28;20033;-75
2022/09/13 12:43:18;;;;;;;3.20;0.50;;;26.20;96.40;;;;;;4988477;28;20031;-75
2022/09/13 12:46:12;;;;;;;2.40;0.70;;;26.10;96.50;;;;;;4989635;28;20030;-75
2022/09/13 12:48:48;;;;;;;2.42;0.40;;;26.00;96.40;;;;;;4986055;28;20030;-75
2022/09/13 12:51:44;;;;;;;3.13;0.50;;;25.90;96.50;;;;;;4991771;28;20030;-75
2022/09/13 12:54:54;;;;;;;1.08;0.30;;;25.80;96.30;;;;;;4990320;28;20403;-75
2022/09/13 12:57:27;;;;;;;1.52;0.40;;;25.70;96.70;;;;;;4992717;28;20024;-75
2022/09/13 13:00:17;;;;;;;3.67;0.50;;;25.80;96.70;;;;;;4988327;28;20039;-75
2022/09/13 13:03:10;;;;;;;3.15;0.85;;;26.10;96.50;;;;;;4993557;28;20054;-76
2022/09/13 13:05:45;;;;;;;1.65;0.40;;;26.20;95.90;;;;;;4988115;28;20039;-76
2022/09/13 13:08:45;;;;;;;2.40;0.45;;;26.20;95.90;;;;;;4990659;28;20371;-76